createdAt,value
2023-05-01T00:01:00.277Z,5.97
2023-05-01T00:03:28.070Z,5.93
2023-05-01T00:06:04.954Z,5.81
2023-05-01T00:08:32.730Z,5.55
2023-05-01T00:11:04.887Z,5.45
2023-05-01T00:13:32.845Z,5.42
2023-05-01T00:16:00.019Z,5.34
2023-05-01T00:18:29.706Z,5.22
2023-05-01T00:20:56.982Z,5.19
2023-05-01T00:23:24.149Z,5.20
2023-05-01T00:25:51.397Z,5.28
2023-05-01T00:28:19.670Z,5.29
2023-05-01T00:30:47.197Z,5.22
2023-05-01T00:33:15.554Z,5.17
2023-05-01T00:35:46.564Z,5.11
2023-05-01T00:38:13.791Z,4.94
2023-05-01T00:40:47.833Z,4.85
2023-05-01T00:43:15.147Z,4.82
2023-05-01T00:45:46.180Z,4.79
2023-05-01T00:48:14.840Z,4.72
2023-05-01T00:50:43.407Z,4.67
2023-05-01T00:53:12.384Z,4.60
2023-05-01T00:55:42.832Z,4.53
2023-05-01T00:58:12.265Z,4.36
2023-05-01T01:00:39.743Z,4.32
2023-05-01T01:03:07.683Z,4.31
2023-05-01T01:05:42.082Z,4.31
2023-05-01T01:08:33.762Z,4.36
2023-05-01T01:11:34.277Z,4.20
2023-05-01T01:14:38.940Z,4.17
2023-05-01T01:17:23.334Z,4.17
2023-05-01T01:20:04.321Z,4.13
2023-05-01T01:22:35.395Z,4.07
2023-05-01T01:25:48.592Z,4.03
2023-05-01T01:28:43.295Z,4.03
2023-05-01T01:32:05.802Z,4.02
2023-05-01T01:34:38.942Z,4.04
2023-05-01T01:37:19.755Z,4.11
2023-05-01T01:39:55.409Z,4.01
2023-05-01T01:42:30.644Z,4.05
2023-05-01T01:45:05.203Z,4.14
2023-05-01T01:47:34.829Z,4.21
2023-05-01T01:50:06.827Z,4.26
2023-05-01T01:52:38.387Z,3.98
2023-05-01T01:55:13.749Z,3.98
2023-05-01T01:57:44.947Z,3.94
2023-05-01T02:00:13.928Z,3.84
2023-05-01T02:02:45.064Z,3.83
2023-05-01T02:05:16.628Z,3.70
2023-05-01T02:07:48.718Z,3.75
2023-05-01T02:10:19.004Z,3.71
2023-05-01T02:12:51.077Z,3.66
2023-05-01T02:15:19.678Z,3.56
2023-05-01T02:17:47.946Z,3.54
2023-05-01T02:20:16.508Z,3.46
2023-05-01T02:22:46.460Z,3.42
2023-05-01T02:25:16.781Z,3.42
2023-05-01T02:28:09.064Z,3.50
2023-05-01T02:30:36.573Z,3.51
2023-05-01T02:33:04.285Z,3.51
2023-05-01T02:35:32.775Z,3.48
2023-05-01T02:38:00.038Z,3.48
2023-05-01T02:40:27.878Z,3.44
2023-05-01T02:42:57.214Z,3.31
2023-05-01T02:45:26.084Z,3.28
2023-05-01T02:48:00.094Z,3.14
2023-05-01T02:50:27.967Z,3.05
2023-05-01T02:52:56.586Z,3.05
2023-05-01T02:55:53.671Z,3.12
2023-05-01T02:58:21.256Z,2.95
2023-05-01T03:00:51.784Z,3.00
2023-05-01T03:03:20.396Z,2.97
2023-05-01T03:05:48.123Z,2.89
2023-05-01T03:08:15.450Z,2.93
2023-05-01T03:10:43.432Z,2.80
2023-05-01T03:13:11.825Z,2.82
2023-05-01T03:15:39.763Z,2.94
2023-05-01T03:18:07.218Z,2.89
2023-05-01T03:20:34.506Z,3.05
2023-05-01T03:23:02.612Z,3.09
2023-05-01T03:25:30.409Z,3.15
2023-05-01T03:27:57.628Z,3.05
2023-05-01T03:30:25.326Z,2.99
2023-05-01T03:32:55.289Z,3.11
2023-05-01T03:35:29.332Z,3.23
2023-05-01T03:37:57.021Z,3.28
2023-05-01T03:40:43.140Z,3.38
2023-05-01T03:43:42.856Z,3.59
2023-05-01T03:46:19.327Z,3.70
2023-05-01T03:48:46.889Z,3.75
2023-05-01T03:51:17.217Z,3.78
2023-05-01T03:53:45.498Z,3.92
2023-05-01T03:56:12.891Z,3.95
2023-05-01T03:58:40.267Z,4.08
2023-05-01T04:01:07.526Z,4.27
2023-05-01T04:03:39.272Z,4.47
2023-05-01T04:06:06.831Z,4.52
2023-05-01T04:08:34.484Z,4.60
2023-05-01T04:11:01.800Z,4.77
2023-05-01T04:13:29.017Z,5.14
2023-05-01T04:15:57.983Z,5.34
2023-05-01T04:18:26.866Z,5.54
2023-05-01T04:20:59.077Z,5.78
2023-05-01T04:23:27.822Z,6.18
2023-05-01T04:25:58.368Z,6.65
2023-05-01T04:28:26.548Z,7.28
2023-05-01T04:30:54.053Z,7.49
2023-05-01T04:33:21.770Z,8.03
2023-05-01T04:35:50.194Z,8.25
2023-05-01T04:38:17.566Z,8.72
2023-05-01T04:40:45.561Z,8.99
2023-05-01T04:43:13.379Z,9.21
2023-05-01T04:45:41.389Z,9.75
2023-05-01T04:48:08.899Z,10.27
2023-05-01T04:50:36.204Z,10.23
2023-05-01T04:53:03.394Z,10.67
2023-05-01T04:55:31.344Z,10.83
2023-05-01T04:58:09.930Z,11.34
2023-05-01T05:00:37.235Z,11.57
2023-05-01T05:03:07.310Z,11.20
2023-05-01T05:05:35.384Z,10.99
2023-05-01T05:08:04.726Z,11.39
2023-05-01T05:10:36.451Z,11.90
2023-05-01T05:13:23.942Z,12.66
2023-05-01T05:15:59.829Z,13.54
2023-05-01T05:18:27.997Z,14.04
2023-05-01T05:20:56.364Z,14.16
2023-05-01T05:23:23.678Z,14.80
2023-05-01T05:25:51.033Z,15.00
2023-05-01T05:28:20.111Z,15.33
2023-05-01T05:30:47.915Z,15.67
2023-05-01T05:33:17.592Z,16.22
2023-05-01T05:35:45.601Z,17.01
2023-05-01T05:38:13.810Z,17.59
2023-05-01T05:40:42.296Z,17.86
2023-05-01T05:43:10.861Z,17.70
2023-05-01T05:45:38.512Z,17.34
2023-05-01T05:48:06.146Z,18.10
2023-05-01T05:50:36.802Z,18.53
2023-05-01T05:53:04.245Z,19.07
2023-05-01T05:55:31.808Z,19.07
2023-05-01T05:58:03.873Z,19.26
2023-05-01T06:00:32.011Z,19.38
2023-05-01T06:03:04.209Z,19.70
2023-05-01T06:05:32.610Z,19.87
2023-05-01T06:07:59.924Z,20.08
2023-05-01T06:10:27.236Z,20.45
2023-05-01T06:13:01.880Z,20.55
2023-05-01T06:15:43.971Z,20.33
2023-05-01T06:18:12.048Z,19.83
2023-05-01T06:20:39.929Z,19.68
2023-05-01T06:23:09.629Z,19.61
2023-05-01T06:25:44.861Z,19.89
2023-05-01T06:28:12.091Z,19.74
2023-05-01T06:30:39.381Z,20.83
2023-05-01T06:33:06.842Z,22.00
2023-05-01T06:35:34.383Z,22.61
2023-05-01T06:38:02.842Z,21.44
2023-05-01T06:40:31.709Z,22.57
2023-05-01T06:42:58.969Z,23.27
2023-05-01T06:45:28.971Z,22.90
2023-05-01T06:47:56.374Z,23.58
2023-05-01T06:50:23.776Z,24.21
2023-05-01T06:52:50.961Z,24.74
2023-05-01T06:55:18.388Z,25.21
2023-05-01T06:57:46.098Z,25.16
2023-05-01T07:00:14.534Z,25.17
2023-05-01T07:02:41.989Z,24.10
2023-05-01T07:05:09.646Z,24.33
2023-05-01T07:07:38.940Z,23.93
2023-05-01T07:10:10.046Z,25.44
2023-05-01T07:12:37.558Z,25.29
2023-05-01T07:15:05.805Z,25.24
2023-05-01T07:17:33.142Z,26.76
2023-05-01T07:20:01.199Z,25.93
2023-05-01T07:22:29.306Z,26.64
2023-05-01T07:24:56.800Z,27.21
2023-05-01T07:27:24.853Z,28.40
2023-05-01T07:29:52.360Z,29.39
2023-05-01T07:32:19.686Z,28.33
2023-05-01T07:34:46.940Z,29.00
2023-05-01T07:37:14.168Z,29.96
2023-05-01T07:39:41.464Z,29.27
2023-05-01T07:42:08.645Z,29.25
2023-05-01T07:44:36.040Z,30.17
2023-05-01T07:47:04.658Z,29.74
2023-05-01T07:49:40.001Z,29.23
2023-05-01T07:52:07.681Z,28.83
2023-05-01T07:54:35.133Z,30.93
2023-05-01T07:57:02.988Z,30.71
2023-05-01T07:59:30.454Z,31.63
2023-05-01T08:01:57.855Z,31.91
2023-05-01T08:04:25.134Z,31.07
2023-05-01T08:06:52.974Z,30.86
2023-05-01T08:09:20.300Z,31.48
2023-05-01T08:11:47.564Z,31.67
2023-05-01T08:14:17.665Z,31.31
2023-05-01T08:16:45.192Z,31.18
2023-05-01T08:19:12.587Z,32.11
2023-05-01T08:21:39.966Z,33.05
2023-05-01T08:24:10.877Z,32.31
2023-05-01T08:26:38.582Z,33.32
2023-05-01T08:29:05.754Z,32.25
2023-05-01T08:31:33.186Z,32.90
2023-05-01T08:34:00.495Z,31.90
2023-05-01T08:36:28.199Z,32.19
2023-05-01T08:38:55.533Z,33.75
2023-05-01T08:41:23.953Z,34.63
2023-05-01T08:43:51.364Z,34.95
2023-05-01T08:46:45.559Z,33.44
2023-05-01T08:49:17.134Z,33.41
2023-05-01T08:51:50.357Z,34.82
2023-05-01T08:54:19.909Z,33.59
2023-05-01T08:56:53.566Z,33.69
2023-05-01T08:59:23.960Z,33.76
2023-05-01T09:01:52.401Z,34.63
2023-05-01T09:04:20.373Z,34.43
2023-05-01T09:06:47.763Z,34.94
2023-05-01T09:09:15.096Z,34.41
2023-05-01T09:11:45.149Z,33.11
2023-05-01T09:14:12.579Z,33.29
2023-05-01T09:16:39.947Z,34.46
2023-05-01T09:19:07.319Z,34.15
2023-05-01T09:21:34.792Z,33.89
2023-05-01T09:24:02.876Z,35.54
2023-05-01T09:26:30.552Z,34.97
2023-05-01T09:28:58.455Z,33.58
2023-05-01T09:31:29.182Z,33.11
2023-05-01T09:34:05.220Z,34.61
2023-05-01T09:36:34.629Z,34.42
2023-05-01T09:39:02.681Z,35.33
2023-05-01T09:41:34.054Z,35.01
2023-05-01T09:44:01.906Z,33.44
2023-05-01T09:46:40.856Z,32.42
2023-05-01T09:49:08.207Z,32.44
2023-05-01T09:51:35.660Z,33.03
2023-05-01T09:54:05.275Z,32.62
2023-05-01T09:56:34.397Z,32.44
2023-05-01T09:59:21.630Z,33.09
2023-05-01T10:01:50.637Z,32.72
2023-05-01T10:04:18.304Z,33.17
2023-05-01T10:06:46.058Z,32.09
2023-05-01T10:09:29.344Z,32.72
2023-05-01T10:11:57.940Z,33.32
2023-05-01T10:14:27.207Z,35.06
2023-05-01T10:16:54.969Z,33.63
2023-05-01T10:19:22.516Z,33.27
2023-05-01T10:21:50.003Z,32.89
2023-05-01T10:24:18.814Z,31.66
2023-05-01T10:26:49.260Z,33.14
2023-05-01T10:29:18.307Z,32.41
2023-05-01T10:31:45.585Z,31.23
2023-05-01T10:34:18.259Z,31.85
2023-05-01T10:36:55.067Z,31.57
2023-05-01T10:39:38.192Z,30.71
2023-05-01T10:42:05.446Z,28.95
2023-05-01T10:44:35.098Z,28.67
2023-05-01T10:47:25.467Z,30.27
2023-05-01T10:50:22.315Z,30.73
2023-05-01T10:53:11.938Z,30.94
2023-05-01T10:55:45.002Z,30.00
2023-05-01T10:58:14.536Z,30.34
2023-05-01T11:00:42.342Z,31.23
2023-05-01T11:03:21.809Z,29.87
2023-05-01T11:06:01.314Z,29.35
2023-05-01T11:08:39.218Z,28.55
2023-05-01T11:11:21.870Z,29.36
2023-05-01T11:14:04.248Z,28.65
2023-05-01T11:16:51.847Z,28.00
2023-05-01T11:19:22.294Z,28.07
2023-05-01T11:21:50.851Z,28.77
2023-05-01T11:24:18.972Z,28.94
2023-05-01T11:26:47.480Z,28.32
2023-05-01T11:29:14.755Z,27.94
2023-05-01T11:31:42.303Z,27.53
2023-05-01T11:34:10.063Z,27.38
2023-05-01T11:36:51.948Z,26.67
2023-05-01T11:39:20.492Z,26.10
2023-05-01T11:41:48.039Z,25.81
2023-05-01T11:44:18.997Z,26.12
2023-05-01T11:46:46.293Z,25.64
2023-05-01T11:49:13.586Z,24.22
2023-05-01T11:51:40.868Z,24.56
2023-05-01T11:54:11.798Z,24.58
2023-05-01T11:56:41.265Z,24.90
2023-05-01T11:59:17.045Z,24.00
2023-05-01T12:01:46.432Z,23.42
2023-05-01T12:04:23.940Z,22.92
2023-05-01T12:06:51.769Z,23.05
2023-05-01T12:09:29.978Z,23.68
2023-05-01T12:11:59.826Z,23.55
2023-05-01T12:14:27.447Z,23.72
2023-05-01T12:16:55.696Z,23.72
2023-05-01T12:19:23.947Z,23.58
2023-05-01T12:22:07.068Z,23.49
2023-05-01T12:24:34.605Z,23.75
2023-05-01T12:27:03.604Z,23.36
2023-05-01T12:29:41.666Z,22.82
2023-05-01T12:32:09.591Z,23.29
2023-05-01T12:34:37.052Z,23.27
2023-05-01T12:37:05.396Z,22.98
2023-05-01T12:39:42.470Z,22.89
2023-05-01T12:42:15.278Z,23.01
2023-05-01T12:44:44.073Z,23.14
2023-05-01T12:47:13.087Z,22.63
2023-05-01T12:49:41.585Z,22.65
2023-05-01T12:52:09.570Z,22.93
2023-05-01T12:54:44.049Z,22.67
2023-05-01T12:57:16.790Z,22.34
2023-05-01T12:59:49.604Z,22.04
2023-05-01T13:02:18.541Z,22.56
2023-05-01T13:04:49.388Z,22.49
2023-05-01T13:07:19.554Z,22.17
2023-05-01T13:10:00.441Z,22.29
2023-05-01T13:12:30.798Z,22.39
2023-05-01T13:14:59.538Z,22.71
2023-05-01T13:17:31.528Z,22.94
2023-05-01T13:20:05.050Z,22.84
2023-05-01T13:22:38.254Z,23.19
2023-05-01T13:25:20.700Z,23.23
2023-05-01T13:27:53.393Z,22.47
2023-05-01T13:30:31.383Z,22.45
2023-05-01T13:32:59.028Z,21.97
2023-05-01T13:35:27.471Z,21.44
2023-05-01T13:37:54.817Z,21.25
2023-05-01T13:40:24.453Z,21.84
2023-05-01T13:42:54.119Z,22.07
2023-05-01T13:45:21.689Z,22.02
2023-05-01T13:47:52.058Z,21.24
2023-05-01T13:50:19.722Z,21.73
2023-05-01T13:52:47.030Z,21.76
2023-05-01T13:55:14.936Z,22.00
2023-05-01T13:57:43.263Z,21.89
2023-05-01T14:00:19.631Z,21.78
2023-05-01T14:02:49.256Z,21.70
2023-05-01T14:05:20.662Z,21.90
2023-05-01T14:07:58.917Z,22.18
2023-05-01T14:10:28.907Z,22.40
2023-05-01T14:13:00.441Z,22.50
2023-05-01T14:15:28.865Z,22.21
2023-05-01T14:17:56.213Z,21.62
2023-05-01T14:20:25.957Z,21.84
2023-05-01T14:22:53.708Z,21.98
2023-05-01T14:25:30.777Z,21.83
2023-05-01T14:28:01.163Z,21.60
2023-05-01T14:30:34.204Z,21.54
2023-05-01T14:33:09.629Z,21.22
2023-05-01T14:35:44.376Z,20.99
2023-05-01T14:38:14.900Z,21.08
2023-05-01T14:40:42.745Z,20.87
2023-05-01T14:43:24.016Z,20.72
2023-05-01T14:45:51.510Z,20.86
2023-05-01T14:48:29.656Z,20.61
2023-05-01T14:50:58.433Z,20.66
2023-05-01T14:53:27.732Z,20.77
2023-05-01T14:55:54.970Z,20.78
2023-05-01T14:58:22.177Z,21.07
2023-05-01T15:00:49.505Z,21.28
2023-05-01T15:03:16.904Z,21.00
2023-05-01T15:05:46.223Z,21.04
2023-05-01T15:08:13.571Z,21.00
2023-05-01T15:10:41.813Z,20.81
2023-05-01T15:13:09.419Z,20.66
2023-05-01T15:15:36.694Z,20.52
2023-05-01T15:18:04.164Z,20.37
2023-05-01T15:20:32.039Z,20.37
2023-05-01T15:22:59.226Z,20.40
2023-05-01T15:25:26.551Z,20.59
2023-05-01T15:27:53.951Z,20.85
2023-05-01T15:30:21.413Z,20.46
2023-05-01T15:32:48.909Z,20.35
2023-05-01T15:35:17.409Z,20.51
2023-05-01T15:37:44.677Z,20.36
2023-05-01T15:40:12.345Z,20.46
2023-05-01T15:42:39.920Z,20.08
2023-05-01T15:45:08.230Z,19.87
2023-05-01T15:47:35.544Z,19.85
2023-05-01T15:50:03.014Z,19.87
2023-05-01T15:52:30.477Z,20.06
2023-05-01T15:54:57.683Z,19.94
2023-05-01T15:57:25.128Z,19.80
2023-05-01T15:59:54.113Z,19.65
2023-05-01T16:02:21.866Z,19.87
2023-05-01T16:04:49.561Z,19.76
2023-05-01T16:07:16.823Z,19.74
2023-05-01T16:09:44.092Z,19.76
2023-05-01T16:12:11.781Z,19.68
2023-05-01T16:14:42.441Z,19.64
2023-05-01T16:17:10.122Z,19.53
2023-05-01T16:19:38.540Z,19.57
2023-05-01T16:22:07.211Z,19.61
2023-05-01T16:24:34.948Z,19.42
2023-05-01T16:27:03.341Z,19.26
2023-05-01T16:29:33.803Z,19.13
2023-05-01T16:32:04.046Z,19.11
2023-05-01T16:34:31.381Z,19.07
2023-05-01T16:36:58.529Z,19.00
2023-05-01T16:39:25.912Z,18.92
2023-05-01T16:41:54.866Z,18.76
2023-05-01T16:44:23.286Z,18.64
2023-05-01T16:46:56.534Z,18.69
2023-05-01T16:49:29.586Z,18.65
2023-05-01T16:51:58.424Z,18.62
2023-05-01T16:54:35.480Z,18.44
2023-05-01T16:57:03.811Z,18.47
2023-05-01T16:59:31.689Z,18.40
2023-05-01T17:01:59.108Z,18.39
2023-05-01T17:04:26.946Z,18.35
2023-05-01T17:06:56.132Z,18.27
2023-05-01T17:09:23.625Z,18.14
2023-05-01T17:11:59.118Z,18.09
2023-05-01T17:14:28.891Z,18.06
2023-05-01T17:16:58.870Z,17.88
2023-05-01T17:19:26.653Z,17.88
2023-05-01T17:21:54.126Z,17.82
2023-05-01T17:24:22.582Z,17.78
2023-05-01T17:26:49.943Z,17.67
2023-05-01T17:29:17.183Z,17.50
2023-05-01T17:31:44.643Z,17.24
2023-05-01T17:34:12.011Z,17.29
2023-05-01T17:36:39.327Z,17.27
2023-05-01T17:39:06.755Z,17.27
2023-05-01T17:41:34.008Z,17.15
2023-05-01T17:44:01.459Z,17.19
2023-05-01T17:46:28.983Z,17.12
2023-05-01T17:48:57.445Z,17.05
2023-05-01T17:51:24.821Z,16.99
2023-05-01T17:53:52.704Z,16.90
2023-05-01T17:56:21.972Z,16.76
2023-05-01T17:58:49.587Z,16.63
2023-05-01T18:01:17.012Z,16.61
2023-05-01T18:03:45.194Z,16.60
2023-05-01T18:06:12.616Z,16.51
2023-05-01T18:08:39.783Z,16.40
2023-05-01T18:11:08.117Z,16.26
2023-05-01T18:13:38.330Z,16.26
2023-05-01T18:16:06.015Z,16.22
2023-05-01T18:18:33.384Z,15.96
2023-05-01T18:21:00.916Z,15.88
2023-05-01T18:23:28.463Z,15.84
2023-05-01T18:25:56.184Z,15.54
2023-05-01T18:28:23.484Z,15.28
2023-05-01T18:30:50.933Z,15.16
2023-05-01T18:33:18.650Z,15.16
2023-05-01T18:35:45.988Z,15.18
2023-05-01T18:38:13.308Z,14.84
2023-05-01T18:40:40.688Z,14.60
2023-05-01T18:43:08.170Z,14.49
2023-05-01T18:45:35.494Z,14.43
2023-05-01T18:48:03.873Z,14.29
2023-05-01T18:50:31.463Z,14.13
2023-05-01T18:52:59.286Z,14.16
2023-05-01T18:55:26.945Z,14.27
2023-05-01T18:57:54.228Z,14.24
2023-05-01T19:00:21.731Z,14.19
2023-05-01T19:02:52.108Z,14.17
2023-05-01T19:05:20.012Z,14.07
2023-05-01T19:07:47.475Z,14.01
2023-05-01T19:10:15.047Z,13.99
2023-05-01T19:12:42.504Z,13.93
2023-05-01T19:15:10.487Z,13.92
2023-05-01T19:17:37.964Z,13.88
2023-05-01T19:20:06.365Z,13.78
2023-05-01T19:22:33.848Z,13.82
2023-05-01T19:25:01.812Z,13.80
2023-05-01T19:27:29.395Z,13.77
2023-05-01T19:29:59.387Z,13.79
2023-05-01T19:32:28.759Z,13.89
2023-05-01T19:34:56.949Z,13.86
2023-05-01T19:37:24.313Z,14.00
2023-05-01T19:39:51.722Z,14.12
2023-05-01T19:42:19.185Z,14.19
2023-05-01T19:44:46.529Z,14.32
2023-05-01T19:47:13.989Z,14.34
2023-05-01T19:49:41.351Z,14.55
2023-05-01T19:52:09.143Z,14.78
2023-05-01T19:54:36.704Z,14.76
2023-05-01T19:57:04.619Z,14.63
2023-05-01T19:59:32.061Z,14.48
2023-05-01T20:02:01.046Z,14.31
2023-05-01T20:04:28.901Z,14.57
2023-05-01T20:06:56.402Z,14.67
2023-05-01T20:09:23.853Z,14.48
2023-05-01T20:11:51.384Z,14.52
2023-05-01T20:14:18.777Z,14.59
2023-05-01T20:16:46.633Z,14.72
2023-05-01T20:19:16.464Z,14.66
2023-05-01T20:21:43.957Z,14.78
2023-05-01T20:24:11.503Z,14.85
2023-05-01T20:26:38.792Z,14.93
2023-05-01T20:29:06.615Z,14.96
2023-05-01T20:31:34.734Z,15.15
2023-05-01T20:34:02.207Z,15.05
2023-05-01T20:36:29.644Z,15.06
2023-05-01T20:38:57.967Z,15.02
2023-05-01T20:41:26.614Z,15.23
2023-05-01T20:43:54.017Z,15.63
2023-05-01T20:46:23.019Z,15.69
2023-05-01T20:48:50.447Z,15.90
2023-05-01T20:51:18.091Z,16.05
2023-05-01T20:53:45.574Z,16.07
2023-05-01T20:56:13.115Z,16.00
2023-05-01T20:58:40.455Z,16.27
2023-05-01T21:01:08.288Z,16.14
2023-05-01T21:03:35.773Z,15.89
2023-05-01T21:06:03.157Z,15.90
2023-05-01T21:08:31.315Z,15.88
2023-05-01T21:10:58.582Z,16.14
2023-05-01T21:13:28.086Z,16.19
2023-05-01T21:15:55.499Z,16.30
2023-05-01T21:18:23.622Z,16.25
2023-05-01T21:20:51.120Z,16.00
2023-05-01T21:23:18.606Z,15.91
2023-05-01T21:25:45.986Z,15.64
2023-05-01T21:28:14.595Z,15.33
2023-05-01T21:30:42.049Z,15.15
2023-05-01T21:33:14.621Z,14.76
2023-05-01T21:35:44.882Z,14.58
2023-05-01T21:38:12.411Z,15.10
2023-05-01T21:40:46.164Z,15.29
2023-05-01T21:43:13.566Z,15.39
2023-05-01T21:45:44.421Z,15.41
2023-05-01T21:48:15.987Z,15.29
2023-05-01T21:50:43.551Z,15.20
2023-05-01T21:53:10.728Z,15.12
2023-05-01T21:55:39.432Z,14.85
2023-05-01T21:58:06.758Z,14.58
2023-05-01T22:00:34.211Z,14.45
2023-05-01T22:03:06.034Z,14.30
2023-05-01T22:05:34.540Z,14.36
2023-05-01T22:08:01.840Z,14.20
2023-05-01T22:10:29.752Z,14.19
2023-05-01T22:12:57.140Z,13.85
2023-05-01T22:15:24.531Z,13.80
2023-05-01T22:17:51.910Z,13.55
2023-05-01T22:20:19.222Z,13.70
2023-05-01T22:22:46.505Z,13.72
2023-05-01T22:25:13.867Z,13.78
2023-05-01T22:27:41.534Z,13.78
2023-05-01T22:30:09.339Z,13.64
2023-05-01T22:32:36.804Z,13.70
2023-05-01T22:35:05.115Z,13.48
2023-05-01T22:37:32.550Z,13.44
2023-05-01T22:39:59.831Z,13.62
2023-05-01T22:42:27.495Z,13.58
2023-05-01T22:44:54.813Z,13.45
2023-05-01T22:47:22.015Z,13.68
2023-05-01T22:49:49.283Z,13.73
2023-05-01T22:52:16.726Z,13.66
2023-05-01T22:54:43.941Z,13.47
2023-05-01T22:57:11.197Z,13.15
2023-05-01T22:59:40.467Z,13.27
2023-05-01T23:02:08.687Z,13.42
2023-05-01T23:04:36.080Z,13.44
2023-05-01T23:07:03.358Z,13.74
2023-05-01T23:09:33.788Z,13.97
2023-05-01T23:12:02.031Z,13.81
2023-05-01T23:14:29.272Z,13.66
2023-05-01T23:16:56.884Z,13.72
2023-05-01T23:19:25.330Z,13.83
2023-05-01T23:22:11.058Z,13.88
2023-05-01T23:24:49.360Z,13.68
2023-05-01T23:27:18.997Z,13.48
2023-05-01T23:29:58.694Z,13.20
2023-05-01T23:32:31.868Z,12.91
2023-05-01T23:35:19.540Z,12.83
2023-05-01T23:37:46.708Z,13.12
2023-05-01T23:40:13.988Z,13.13
2023-05-01T23:42:41.274Z,13.06
2023-05-01T23:45:09.524Z,13.03
2023-05-01T23:47:38.661Z,13.22
2023-05-01T23:50:07.343Z,13.32
2023-05-01T23:52:34.764Z,13.38
2023-05-01T23:55:02.252Z,13.19
2023-05-01T23:57:29.629Z,12.92
2023-05-01T23:59:56.956Z,12.91
